Lewisville's Hourly Summary for Saturday, July 7, 2018
Hour Temp
(f)
RH
(%)
Solar Rad.
(MJ/m2)
Rainfall
(in)
Wind
(mph)
7/7/2018 12:00 AM 78 73 0 0 2.3
7/7/2018 1:00 AM 78 76 0 0 2.14
7/7/2018 2:00 AM 76 79 0 0 0.27
7/7/2018 3:00 AM 75 84 0 0 0.41
7/7/2018 4:00 AM 75 84 0 0 1.12
7/7/2018 5:00 AM 74 86 0 0 2.99
7/7/2018 6:00 AM 74 85 0.04 0 2.17
7/7/2018 7:00 AM 75 78 0.41 0 3.09
7/7/2018 8:00 AM 77 71 1.06 0 3.9
7/7/2018 9:00 AM 80 66 1.53 0 3.89
7/7/2018 10:00 AM 83 58 2.34 0 4.08
7/7/2018 11:00 AM 86 56 2.83 0 5.11
7/7/2018 12:00 PM 87 53 2.79 0 5.28
7/7/2018 1:00 PM 90 45 2.55 0 5.23
7/7/2018 2:00 PM 92 41 2.95 0 5.78
7/7/2018 3:00 PM 94 38 3.07 0 5.88
7/7/2018 4:00 PM 94 36 2.55 0 6.15
7/7/2018 5:00 PM 94 33 1.88 0 5.85
7/7/2018 6:00 PM 92 33 1.13 0 6.78
7/7/2018 7:00 PM 89 42 0.34 0 6.2
7/7/2018 8:00 PM 87 48 0.03 0 3.9
7/7/2018 9:00 PM 86 48 0 0 2.01
7/7/2018 10:00 PM 84 53 0 0 2.69
7/7/2018 11:00 PM 82 59 0 0 0.95
Data Summary 83 59 25.50 0.00 3.67